Time;durP1;ratioP1;P1;durP2;ratioP2;P2;SDS_P1;SDS_P2;PMS_P1;PMS_P2;Temp;Humidity;BMP_temperature;BMP_pressure;BME280_temperature;BME280_humidity;BME280_pressure;Samples;Min_cycle;Max_cycle;Signal;HPM_P1;HPM_P2
2022/11/22 00:00:20;;;;;;;29.30;12.30;;;2.00;99.90;;;;;;5030046;28;20050;-47
2022/11/22 00:02:47;;;;;;;39.28;15.75;;;2.10;99.90;;;;;;5028447;28;20421;-48
2022/11/22 00:05:14;;;;;;;31.98;14.10;;;2.10;99.90;;;;;;5027978;28;20050;-49
2022/11/22 00:07:40;;;;;;;33.83;15.20;;;2.10;99.90;;;;;;5028855;28;20124;-48
2022/11/22 00:10:10;;;;;;;33.70;14.27;;;2.20;99.90;;;;;;5029339;28;20045;-47
2022/11/22 00:12:38;;;;;;;36.80;14.90;;;2.20;99.90;;;;;;5029086;28;20065;-46
2022/11/22 00:15:05;;;;;;;;;;;2.20;99.90;;;;;;5028175;28;20124;-47
2022/11/22 00:17:32;;;;;;;33.33;14.57;;;2.20;99.90;;;;;;5029625;28;19921;-47
2022/11/22 00:19:59;;;;;;;36.67;14.40;;;2.20;99.90;;;;;;5027158;28;20111;-47
2022/11/22 00:22:26;;;;;;;26.75;13.13;;;2.20;99.90;;;;;;5010341;28;20076;-47
2022/11/22 00:24:52;;;;;;;34.83;15.38;;;2.20;99.90;;;;;;5028908;28;20045;-47
2022/11/22 00:27:19;;;;;;;33.10;14.98;;;2.30;99.90;;;;;;5028945;28;20124;-49
2022/11/22 00:29:46;;;;;;;34.70;14.68;;;2.20;99.90;;;;;;5027949;28;20053;-47
2022/11/22 00:32:13;;;;;;;21.35;10.30;;;2.20;99.90;;;;;;5011469;28;20561;-47
2022/11/22 00:34:40;;;;;;;27.40;12.23;;;2.20;99.90;;;;;;5029613;28;20132;-47
2022/11/22 00:37:07;;;;;;;28.17;12.18;;;2.20;99.90;;;;;;5029870;28;20466;-47
2022/11/22 00:39:34;;;;;;;27.55;12.52;;;2.20;99.90;;;;;;5033138;28;20076;-49
2022/11/22 00:42:00;;;;;;;27.90;12.18;;;2.30;99.90;;;;;;5033169;28;20480;-47
2022/11/22 00:44:27;;;;;;;26.45;13.15;;;2.30;99.90;;;;;;5034250;28;20107;-47
2022/11/22 00:46:54;;;;;;;28.10;12.35;;;2.30;99.90;;;;;;5032719;28;20111;-47
2022/11/22 00:49:20;;;;;;;26.42;11.15;;;2.30;99.90;;;;;;5034062;28;20095;-48
2022/11/22 00:51:47;;;;;;;25.95;12.63;;;2.30;99.90;;;;;;5033070;28;20038;-48
2022/11/22 00:54:14;;;;;;;20.17;8.93;;;2.30;99.90;;;;;;5032092;28;20192;-47
2022/11/22 00:56:41;;;;;;;25.48;11.05;;;2.30;99.90;;;;;;5033736;28;20119;-48
2022/11/22 00:59:07;;;;;;;18.50;8.00;;;2.30;99.90;;;;;;5033385;28;20080;-48
2022/11/22 01:01:38;;;;;;;19.55;8.20;;;2.30;99.90;;;;;;5053024;22;20043;-48
2022/11/22 01:04:08;;;;;;;25.90;11.40;;;2.30;99.90;;;;;;5069302;28;20040;-48
2022/11/22 01:06:35;;;;;;;22.58;10.27;;;2.20;99.90;;;;;;5089754;28;20051;-48
2022/11/22 01:09:02;;;;;;;22.80;10.98;;;2.30;99.90;;;;;;5085463;28;20123;-47
2022/11/22 01:11:29;;;;;;;25.08;10.77;;;2.30;99.90;;;;;;5081625;28;20454;-48
2022/11/22 01:13:55;;;;;;;22.33;10.95;;;2.20;99.90;;;;;;5080608;28;20127;-47
2022/11/22 01:16:22;;;;;;;25.48;11.73;;;2.30;99.90;;;;;;5078104;28;20064;-47
2022/11/22 01:18:49;;;;;;;24.80;10.93;;;2.30;99.90;;;;;;5079471;28;20215;-48
2022/11/22 01:21:16;;;;;;;15.80;6.78;;;2.30;99.90;;;;;;5090048;28;20082;-47
2022/11/22 01:23:42;;;;;;;22.60;10.60;;;2.30;99.90;;;;;;5088778;28;20522;-47
2022/11/22 01:26:11;;;;;;;17.33;6.97;;;2.30;99.90;;;;;;5073433;28;20041;-48
2022/11/22 01:28:37;;;;;;;22.70;10.73;;;2.40;99.90;;;;;;5091786;28;20587;-48
2022/11/22 01:31:04;;;;;;;13.55;6.97;;;2.40;99.90;;;;;;5094057;28;20130;-49
2022/11/22 01:33:31;;;;;;;21.45;9.85;;;2.30;99.90;;;;;;5089590;28;20131;-48
2022/11/22 01:35:58;;;;;;;12.82;6.30;;;2.30;99.90;;;;;;5081993;28;20064;-48
2022/11/22 01:38:24;;;;;;;12.27;5.97;;;2.30;99.90;;;;;;5072310;28;20507;-51
2022/11/22 01:40:52;;;;;;;13.75;5.88;;;2.40;99.90;;;;;;5073435;28;20037;-48
2022/11/22 01:43:24;;;;;;;18.50;8.38;;;2.40;99.90;;;;;;5080440;28;20083;-49
2022/11/22 01:46:03;;;;;;;17.58;8.52;;;2.40;99.90;;;;;;5086348;28;20090;-47
2022/11/22 01:48:57;;;;;;;17.40;8.30;;;2.40;99.90;;;;;;5083979;28;20067;-49
2022/11/22 01:51:28;;;;;;;16.92;8.05;;;2.50;99.90;;;;;;5071180;28;20570;-47
2022/11/22 01:54:00;;;;;;;16.42;7.80;;;2.50;99.90;;;;;;5080221;28;20040;-48
2022/11/22 01:56:28;;;;;;;13.77;7.60;;;2.50;99.90;;;;;;5092388;28;20101;-48
2022/11/22 01:59:00;;;;;;;19.63;8.90;;;2.50;99.90;;;;;;5077221;28;20068;-48
2022/11/22 02:01:28;;;;;;;19.33;9.02;;;2.50;99.90;;;;;;5072214;28;20099;-47
2022/11/22 02:03:56;;;;;;;17.65;8.25;;;2.50;99.90;;;;;;5080418;28;20112;-49
2022/11/22 02:06:27;;;;;;;18.05;8.35;;;2.50;99.90;;;;;;5092684;28;20101;-48
2022/11/22 02:09:00;;;;;;;18.60;8.23;;;2.40;99.90;;;;;;5080336;28;20068;-51
2022/11/22 02:11:27;;;;;;;18.77;9.13;;;2.40;99.90;;;;;;5071633;28;20055;-48
2022/11/22 02:14:00;;;;;;;15.63;8.15;;;2.40;99.90;;;;;;5091964;28;20464;-47
2022/11/22 02:16:27;;;;;;;20.08;8.80;;;2.40;99.90;;;;;;5090021;28;20069;-49
2022/11/22 02:18:54;;;;;;;16.83;7.68;;;2.40;99.90;;;;;;5092751;28;20079;-48
2022/11/22 02:21:21;;;;;;;20.20;10.07;;;2.40;99.90;;;;;;5089576;28;20071;-50
2022/11/22 02:24:02;;;;;;;20.42;8.20;;;2.40;99.90;;;;;;5072402;28;20045;-48
2022/11/22 02:26:30;;;;;;;17.90;8.07;;;2.50;99.90;;;;;;5080544;28;20067;-48
2022/11/22 02:29:02;;;;;;;16.80;7.70;;;2.50;99.90;;;;;;5086290;28;20044;-48
2022/11/22 02:31:44;;;;;;;17.80;8.18;;;2.50;99.90;;;;;;5083847;28;20048;-48
2022/11/22 02:34:12;;;;;;;17.52;8.65;;;2.50;99.90;;;;;;5072060;28;20044;-47
2022/11/22 02:36:52;;;;;;;17.92;9.00;;;2.50;99.90;;;;;;5078455;28;20045;-48
2022/11/22 02:39:24;;;;;;;21.85;9.57;;;2.50;99.90;;;;;;5090079;28;20561;-47
2022/11/22 02:41:52;;;;;;;22.77;11.02;;;2.60;99.90;;;;;;5091032;28;20056;-48
2022/11/22 02:44:20;;;;;;;19.80;9.55;;;2.60;99.90;;;;;;5091953;28;20087;-47
2022/11/22 02:46:52;;;;;;;19.83;9.55;;;2.50;99.90;;;;;;5089626;28;20068;-47
2022/11/22 02:49:21;;;;;;;15.98;7.65;;;2.60;99.90;;;;;;5091864;28;20471;-47
2022/11/22 02:51:49;;;;;;;16.85;8.55;;;2.60;99.90;;;;;;5080877;28;20093;-48
2022/11/22 02:54:16;;;;;;;17.48;8.23;;;2.60;99.90;;;;;;5091810;28;20101;-47
2022/11/22 02:56:43;;;;;;;17.73;8.52;;;2.60;99.90;;;;;;5074248;28;20526;-47
2022/11/22 02:59:09;;;;;;;21.08;9.38;;;2.60;99.90;;;;;;5054405;28;20076;-50
2022/11/22 03:01:36;;;;;;;21.48;10.32;;;2.60;99.90;;;;;;5081354;28;20139;-50
2022/11/22 03:04:04;;;;;;;22.25;11.00;;;2.70;99.90;;;;;;5071471;28;20037;-48
2022/11/22 03:06:30;;;;;;;20.00;9.55;;;2.70;99.90;;;;;;5071293;28;20068;-47
2022/11/22 03:08:57;;;;;;;18.88;9.18;;;2.60;99.90;;;;;;5080358;28;20101;-47
2022/11/22 03:11:24;;;;;;;19.85;9.18;;;2.70;99.90;;;;;;5070613;28;20119;-48
2022/11/22 03:13:51;;;;;;;20.65;10.73;;;2.60;99.90;;;;;;5091380;28;20048;-48
2022/11/22 03:16:18;;;;;;;19.42;8.90;;;2.70;99.90;;;;;;5090751;28;20073;-48
2022/11/22 03:18:44;;;;;;;20.33;8.48;;;2.60;99.90;;;;;;5083487;28;20480;-48
2022/11/22 03:21:11;;;;;;;21.73;9.50;;;2.60;99.90;;;;;;5070260;28;20123;-48
2022/11/22 03:23:38;;;;;;;17.13;7.90;;;2.70;99.90;;;;;;5069286;28;20097;-49
2022/11/22 03:26:09;;;;;;;12.98;6.38;;;2.70;99.90;;;;;;5070894;28;20124;-48
2022/11/22 03:28:36;;;;;;;21.33;8.77;;;2.70;99.90;;;;;;5085928;28;20405;-47
2022/11/22 03:31:07;;;;;;;13.68;6.20;;;2.70;99.90;;;;;;5071360;28;20040;-48
2022/11/22 03:33:34;;;;;;;19.58;9.35;;;2.70;99.90;;;;;;5069545;28;20041;-51
2022/11/22 03:36:02;;;;;;;18.05;9.40;;;2.70;99.90;;;;;;5082895;28;20044;-47
2022/11/22 03:38:29;;;;;;;17.42;9.25;;;2.60;99.90;;;;;;5086613;28;20044;-47
2022/11/22 03:40:56;;;;;;;12.32;6.40;;;2.60;99.90;;;;;;5071103;28;20053;-48
2022/11/22 03:43:23;;;;;;;19.10;8.35;;;2.60;99.90;;;;;;5069941;28;20094;-49
2022/11/22 03:45:49;;;;;;;16.75;7.80;;;2.60;99.90;;;;;;5082062;28;20047;-48
2022/11/22 03:48:16;;;;;;;21.48;8.25;;;2.60;99.90;;;;;;5082044;28;20041;-47
2022/11/22 03:50:44;;;;;;;16.88;9.18;;;2.60;99.90;;;;;;5071113;28;20079;-49
2022/11/22 03:53:10;;;;;;;17.75;8.77;;;2.60;99.90;;;;;;5079690;28;20071;-49
2022/11/22 03:55:37;;;;;;;18.27;8.82;;;2.60;99.90;;;;;;5071103;28;20090;-47
2022/11/22 03:58:04;;;;;;;13.85;6.30;;;2.50;99.90;;;;;;5070019;28;20466;-47
2022/11/22 04:00:32;;;;;;;18.80;8.82;;;2.50;99.90;;;;;;5083328;28;20079;-47
2022/11/22 04:02:58;;;;;;;19.52;9.43;;;2.60;99.90;;;;;;5083400;28;20052;-47
2022/11/22 04:05:25;;;;;;;19.67;9.07;;;2.60;99.90;;;;;;5091389;28;20105;-47
2022/11/22 04:07:58;;;;;;;20.60;9.43;;;2.60;99.90;;;;;;5089573;28;20119;-47
2022/11/22 04:10:25;;;;;;;18.33;9.10;;;2.60;99.90;;;;;;5081733;28;20520;-49
2022/11/22 04:12:56;;;;;;;21.80;8.85;;;2.60;99.90;;;;;;5070196;28;20041;-48
2022/11/22 04:15:24;;;;;;;18.27;8.43;;;2.60;99.90;;;;;;5089274;28;20047;-47
2022/11/22 04:17:51;;;;;;;18.23;9.27;;;2.60;99.90;;;;;;5082643;28;20044;-49
2022/11/22 04:23:15;;;;;;;16.45;8.57;;;2.60;99.90;;;;;;5077403;28;20083;-49
2022/11/22 04:25:44;;;;;;;18.23;8.48;;;2.60;99.90;;;;;;5074572;28;20044;-47
2022/11/22 04:28:13;;;;;;;17.42;7.95;;;2.60;99.90;;;;;;5073550;28;20115;-48
2022/11/22 04:33:25;;;;;;;21.42;9.65;;;2.60;99.90;;;;;;5079604;28;20090;-48
2022/11/22 04:35:52;;;;;;;19.48;9.05;;;2.60;99.90;;;;;;5056158;28;20045;-47
2022/11/22 04:38:20;;;;;;;18.75;9.55;;;2.70;99.90;;;;;;5055830;28;20136;-49
2022/11/22 04:40:47;;;;;;;18.58;8.18;;;2.70;99.90;;;;;;5072614;28;20052;-47
2022/11/22 04:46:08;;;;;;;19.33;8.68;;;2.70;99.90;;;;;;5081562;28;19952;-48
2022/11/22 04:48:35;;;;;;;19.63;9.50;;;2.70;99.90;;;;;;5074486;28;20048;-47
2022/11/22 04:53:47;;;;;;;17.85;8.93;;;2.80;99.90;;;;;;5073687;28;20048;-48
2022/11/22 04:56:14;;;;;;;20.65;9.23;;;2.80;99.90;;;;;;5072708;28;20079;-48
2022/11/22 04:58:41;;;;;;;21.67;9.27;;;2.80;99.90;;;;;;5093943;28;20044;-50
2022/11/22 05:01:08;;;;;;;16.50;8.70;;;2.80;99.90;;;;;;5063196;28;20633;-48
2022/11/22 05:03:35;;;;;;;;;;;2.80;99.90;;;;;;5073667;28;20040;-50
2022/11/22 05:06:04;;;;;;;15.63;8.43;;;2.80;99.90;;;;;;5085045;28;20382;-47
2022/11/22 05:08:31;;;;;;;19.70;9.68;;;2.80;99.90;;;;;;5079243;28;20109;-48
2022/11/22 05:10:58;;;;;;;22.13;10.65;;;2.80;99.90;;;;;;5084152;28;20067;-49
2022/11/22 05:13:33;;;;;;;19.55;9.98;;;2.80;99.90;;;;;;5076798;28;20048;-47
2022/11/22 05:16:02;;;;;;;23.98;11.20;;;2.80;99.90;;;;;;5079742;28;20035;-48
2022/11/22 05:18:29;;;;;;;21.85;10.73;;;2.90;99.90;;;;;;5082709;28;20041;-48
2022/11/22 05:20:56;;;;;;;20.10;9.30;;;2.90;99.90;;;;;;5086863;28;20070;-49
2022/11/22 05:26:09;;;;;;;24.15;10.50;;;2.80;99.90;;;;;;5077401;28;20061;-49
2022/11/22 05:28:38;;;;;;;20.67;9.88;;;2.90;99.90;;;;;;5084378;28;20409;-48
2022/11/22 05:31:09;;;;;;;22.58;10.60;;;2.90;99.90;;;;;;5072339;28;20044;-49
2022/11/22 05:33:38;;;;;;;23.20;9.38;;;2.90;99.90;;;;;;5070680;28;20040;-48
2022/11/22 05:36:06;;;;;;;19.42;9.38;;;2.80;99.90;;;;;;5078096;28;20095;-48
2022/11/22 05:38:36;;;;;;;18.75;9.18;;;2.80;99.90;;;;;;5072390;28;20118;-48
2022/11/22 05:41:08;;;;;;;20.52;9.85;;;2.80;99.90;;;;;;5073158;28;20071;-48
2022/11/22 05:43:35;;;;;;;19.63;9.63;;;2.90;99.90;;;;;;5070896;28;20044;-50
2022/11/22 05:46:10;;;;;;;22.75;10.23;;;2.80;99.90;;;;;;5073304;28;20493;-49
2022/11/22 05:48:39;;;;;;;21.50;9.82;;;2.80;99.90;;;;;;5076444;28;20113;-49
2022/11/22 05:51:08;;;;;;;24.90;10.63;;;2.80;99.90;;;;;;5078075;28;20493;-49
2022/11/22 05:53:36;;;;;;;18.85;10.40;;;2.90;99.90;;;;;;5071184;28;20504;-48
2022/11/22 05:56:07;;;;;;;23.58;11.15;;;2.90;99.90;;;;;;5081098;28;20117;-48
2022/11/22 05:58:34;;;;;;;26.15;11.40;;;2.90;99.90;;;;;;5080513;28;20033;-48
2022/11/22 06:01:06;;;;;;;23.98;10.77;;;2.90;99.90;;;;;;5075775;28;20070;-47
2022/11/22 06:03:33;;;;;;;26.00;10.10;;;2.90;99.90;;;;;;5079766;28;20082;-48
2022/11/22 06:06:01;;;;;;;25.05;11.30;;;2.90;99.90;;;;;;5081344;28;20037;-48
2022/11/22 06:08:31;;;;;;;;;;;3.00;99.90;;;;;;5088615;28;20127;-47
2022/11/22 06:11:05;;;;;;;22.40;10.88;;;3.00;99.90;;;;;;5076512;28;19967;-52
2022/11/22 06:13:37;;;;;;;25.45;12.48;;;2.90;99.90;;;;;;5069912;28;20496;-49
2022/11/22 06:16:05;;;;;;;23.33;11.40;;;3.00;99.90;;;;;;5072176;28;20098;-48
2022/11/22 06:18:33;;;;;;;28.48;12.77;;;3.00;99.90;;;;;;5076434;28;20492;-48
2022/11/22 06:21:01;;;;;;;25.50;12.07;;;3.10;99.90;;;;;;5086562;28;20098;-47
2022/11/22 06:23:28;;;;;;;29.60;10.90;;;3.10;99.90;;;;;;5071718;28;20117;-47
2022/11/22 06:26:04;;;;;;;19.85;10.02;;;3.00;99.90;;;;;;5076703;28;20052;-48
2022/11/22 06:28:32;;;;;;;20.27;9.80;;;3.00;99.90;;;;;;5074000;28;20102;-48
2022/11/22 06:31:01;;;;;;;21.63;9.50;;;3.00;99.90;;;;;;5072289;28;20111;-48
2022/11/22 06:33:28;;;;;;;25.10;10.02;;;3.00;99.90;;;;;;5074338;28;20126;-47
2022/11/22 06:36:02;;;;;;;19.17;9.68;;;3.00;99.90;;;;;;5086784;28;20090;-48
2022/11/22 06:38:28;;;;;;;25.08;10.38;;;3.00;99.90;;;;;;5080893;28;20048;-47
2022/11/22 06:41:03;;;;;;;12.77;6.65;;;3.00;99.90;;;;;;5077228;28;20041;-47
2022/11/22 06:43:31;;;;;;;21.70;9.70;;;3.00;99.90;;;;;;5078302;28;20033;-47
2022/11/22 06:45:59;;;;;;;20.55;10.48;;;2.90;99.90;;;;;;5080983;28;20040;-48
2022/11/22 06:48:29;;;;;;;19.17;9.60;;;3.10;99.90;;;;;;5083114;28;20043;-48
2022/11/22 06:51:08;;;;;;;26.05;11.90;;;3.10;99.90;;;;;;5080323;28;20102;-47
2022/11/22 06:53:35;;;;;;;23.15;12.10;;;3.20;99.90;;;;;;5086162;28;20048;-47
2022/11/22 06:56:18;;;;;;;25.25;13.07;;;3.20;99.90;;;;;;5082286;28;20044;-49
2022/11/22 06:58:47;;;;;;;26.50;12.70;;;3.10;99.90;;;;;;5082967;28;20036;-47
2022/11/22 07:01:28;;;;;;;20.23;9.98;;;3.20;99.90;;;;;;5091830;28;20052;-48
2022/11/22 07:03:59;;;;;;;21.42;9.32;;;3.20;99.90;;;;;;5091486;28;20127;-48
2022/11/22 07:06:28;;;;;;;21.92;10.10;;;3.30;99.90;;;;;;5082583;28;20115;-48
2022/11/22 07:08:55;;;;;;;23.35;10.48;;;3.20;99.90;;;;;;5071921;28;20052;-48
2022/11/22 07:15:12;;;;;;;23.17;11.00;;;3.20;99.90;;;;;;5048358;28;20053;-47
2022/11/22 07:17:56;;;;;;;21.10;11.02;;;3.30;99.90;;;;;;5049456;28;20497;-47
2022/11/22 07:20:23;;;;;;;43.88;22.58;;;3.30;99.90;;;;;;5040892;28;20096;-46
2022/11/22 07:22:50;;;;;;;31.27;13.13;;;3.30;99.90;;;;;;5030973;28;20461;-47
2022/11/22 07:25:17;;;;;;;32.78;16.30;;;3.30;99.90;;;;;;5045029;28;20469;-46
2022/11/22 07:27:43;;;;;;;18.92;10.50;;;3.30;99.90;;;;;;5051395;28;20076;-47
2022/11/22 07:30:10;;;;;;;22.02;10.40;;;3.30;99.90;;;;;;5050907;28;20509;-46
2022/11/22 07:32:37;;;;;;;18.25;9.75;;;3.30;99.90;;;;;;5030488;28;20042;-47
2022/11/22 07:35:04;;;;;;;15.52;7.43;;;3.40;99.90;;;;;;5044437;28;20111;-46
2022/11/22 07:37:31;;;;;;;;;;;3.40;99.90;;;;;;5030618;28;20446;-48
2022/11/22 07:39:58;;;;;;;25.63;10.55;;;3.40;99.90;;;;;;5033172;28;19964;-47
2022/11/22 07:42:24;;;;;;;21.83;10.77;;;3.40;99.90;;;;;;5030804;28;20042;-48
2022/11/22 07:44:52;;;;;;;24.02;10.60;;;3.40;99.90;;;;;;5031172;28;20424;-47
2022/11/22 07:47:19;;;;;;;21.20;10.57;;;3.50;99.90;;;;;;5050855;28;20052;-47
2022/11/22 07:49:48;;;;;;;28.42;10.80;;;3.50;99.90;;;;;;5032233;28;20092;-47
2022/11/22 07:52:15;;;;;;;24.65;11.45;;;3.50;99.90;;;;;;5044347;28;20783;-47
2022/11/22 07:54:42;;;;;;;14.90;7.05;;;3.50;99.90;;;;;;5040035;28;20048;-47
2022/11/22 07:57:09;;;;;;;20.17;9.07;;;3.50;99.90;;;;;;5043523;28;20056;-47
2022/11/22 07:59:35;;;;;;;19.05;9.23;;;3.50;99.90;;;;;;5030106;28;20080;-46
2022/11/22 08:02:02;;;;;;;18.83;9.40;;;3.50;99.90;;;;;;5026171;28;20565;-47
2022/11/22 08:04:29;;;;;;;22.92;10.52;;;3.50;99.90;;;;;;5028745;28;20525;-46
2022/11/22 08:06:55;;;;;;;19.58;9.55;;;3.50;99.90;;;;;;5031166;28;20072;-46
2022/11/22 08:09:22;;;;;;;21.88;11.15;;;3.50;99.90;;;;;;5029745;28;20115;-47
2022/11/22 08:11:49;;;;;;;20.60;10.48;;;3.40;99.90;;;;;;5035454;28;20201;-46
2022/11/22 08:14:16;;;;;;;14.80;6.72;;;3.50;99.90;;;;;;5050671;28;20136;-47
2022/11/22 08:16:42;;;;;;;14.60;6.80;;;3.40;99.90;;;;;;5050893;28;20452;-46
2022/11/22 08:19:14;;;;;;;18.33;9.82;;;3.40;99.90;;;;;;5041084;28;20050;-47
2022/11/22 08:21:41;;;;;;;20.60;10.77;;;3.50;99.90;;;;;;5030408;28;20564;-47
2022/11/22 08:24:08;;;;;;;20.48;10.50;;;3.50;99.90;;;;;;5030808;28;20119;-46
2022/11/22 08:26:35;;;;;;;23.83;11.45;;;3.50;99.90;;;;;;5030535;28;20077;-46
2022/11/22 08:29:06;;;;;;;23.08;11.35;;;3.50;99.90;;;;;;5025125;28;20099;-46
2022/11/22 08:31:39;;;;;;;24.48;10.38;;;3.50;99.90;;;;;;5024059;28;20041;-46
2022/11/22 08:34:06;;;;;;;19.83;10.45;;;3.60;99.90;;;;;;5050680;28;20071;-48
2022/11/22 08:36:33;;;;;;;20.52;10.25;;;3.60;99.90;;;;;;5044073;28;20070;-46
2022/11/22 08:38:59;;;;;;;24.02;11.10;;;3.60;99.90;;;;;;5050411;28;20053;-47
2022/11/22 08:41:26;;;;;;;17.00;9.02;;;3.60;99.90;;;;;;5031434;28;20099;-46
2022/11/22 08:43:54;;;;;;;22.00;9.20;;;3.60;99.90;;;;;;5049242;28;20037;-46
2022/11/22 08:46:20;;;;;;;20.63;10.00;;;3.50;99.90;;;;;;5030040;28;20049;-47
2022/11/22 08:48:50;;;;;;;18.08;9.40;;;3.60;99.90;;;;;;5031257;28;20071;-47
2022/11/22 08:51:17;;;;;;;19.70;10.00;;;3.60;99.90;;;;;;5030667;28;20087;-46
2022/11/22 08:53:44;;;;;;;19.10;9.88;;;3.60;99.90;;;;;;5037196;28;20077;-47
2022/11/22 08:56:13;;;;;;;20.33;10.35;;;3.50;99.90;;;;;;5050338;28;20037;-47
2022/11/22 08:58:40;;;;;;;15.88;9.35;;;3.50;99.90;;;;;;5050507;28;20520;-51
2022/11/22 09:01:08;;;;;;;18.30;9.85;;;3.50;99.90;;;;;;5049263;28;20143;-46
2022/11/22 09:03:35;;;;;;;21.20;9.90;;;3.50;99.90;;;;;;5053384;28;20124;-47
2022/11/22 09:06:03;;;;;;;;;;;3.60;99.90;;;;;;5054609;28;20084;-47
2022/11/22 09:08:50;;;;;;;20.13;9.27;;;3.60;99.90;;;;;;5034501;28;19921;-46
2022/11/22 09:11:34;;;;;;;21.20;9.93;;;3.60;99.90;;;;;;5026620;28;20645;-48
2022/11/22 09:14:01;;;;;;;16.30;7.88;;;3.60;99.90;;;;;;5037339;28;20045;-47
2022/11/22 09:16:27;;;;;;;14.95;7.18;;;3.70;99.90;;;;;;5033417;28;20038;-47
2022/11/22 09:18:54;;;;;;;20.70;8.65;;;3.70;99.90;;;;;;5032190;28;20537;-46
2022/11/22 09:21:21;;;;;;;21.17;10.13;;;3.70;99.90;;;;;;5033261;28;20061;-47
2022/11/22 09:23:49;;;;;;;25.02;11.63;;;3.70;99.90;;;;;;5033583;28;20116;-46
2022/11/22 09:26:26;;;;;;;21.80;11.20;;;3.70;99.90;;;;;;5031522;28;20080;-46
2022/11/22 09:28:52;;;;;;;19.38;9.45;;;3.70;99.90;;;;;;5039360;28;20132;-46
2022/11/22 09:31:21;;;;;;;16.52;9.65;;;3.70;99.90;;;;;;5052986;28;20087;-47
2022/11/22 09:33:48;;;;;;;18.45;10.10;;;3.70;99.90;;;;;;5053363;28;20040;-47
2022/11/22 09:36:18;;;;;;;20.67;9.63;;;3.70;99.90;;;;;;5035236;28;20041;-47
2022/11/22 09:38:45;;;;;;;19.35;9.60;;;3.70;99.90;;;;;;5045068;28;20040;-52
2022/11/22 09:41:15;;;;;;;15.48;8.18;;;3.80;99.90;;;;;;5053153;28;20064;-47
2022/11/22 09:44:10;;;;;;;14.40;6.35;;;3.80;99.90;;;;;;5046222;28;20065;-47
2022/11/22 09:46:46;;;;;;;13.93;4.85;;;3.80;99.90;;;;;;5032119;28;20053;-46
2022/11/22 09:50:05;;;;;;;14.23;7.00;;;3.80;99.90;;;;;;5032099;28;20498;-46
2022/11/22 09:52:47;;;;;;;16.67;7.75;;;3.80;99.90;;;;;;5031118;28;20091;-48
2022/11/22 09:55:49;;;;;;;12.40;6.97;;;3.90;99.90;;;;;;5053166;28;20075;-49
2022/11/22 09:58:32;;;;;;;14.73;7.63;;;3.90;99.90;;;;;;4991556;28;20129;-47
2022/11/22 10:01:16;;;;;;;15.05;7.40;;;3.90;99.90;;;;;;5038665;28;20127;-46
2022/11/22 10:03:46;;;;;;;12.95;7.18;;;3.90;99.90;;;;;;5032823;28;20065;-46
2022/11/22 10:06:36;;;;;;;12.27;6.53;;;3.90;99.90;;;;;;5032985;28;20045;-47
2022/11/22 10:09:12;;;;;;;16.45;7.57;;;3.90;99.90;;;;;;5043680;28;20471;-46
2022/11/22 10:11:48;;;;;;;13.95;7.28;;;3.90;99.90;;;;;;5050919;28;20114;-48
2022/11/22 10:14:53;;;;;;;14.93;7.68;;;3.90;99.90;;;;;;5052951;28;20069;-46
2022/11/22 10:17:37;;;;;;;21.20;8.15;;;3.90;99.90;;;;;;4993431;28;20082;-49
2022/11/22 10:20:26;;;;;;;12.43;7.22;;;3.90;99.90;;;;;;5011342;28;20058;-46
2022/11/22 10:22:53;;;;;;;;;;;3.90;99.90;;;;;;5013355;28;20107;-48
2022/11/22 10:25:39;;;;;;;17.70;7.60;;;4.00;99.90;;;;;;5019315;28;20552;-47
2022/11/22 10:28:37;;;;;;;13.20;6.15;;;3.90;99.90;;;;;;5052488;28;20040;-47
2022/11/22 10:31:16;;;;;;;12.43;6.65;;;3.90;99.90;;;;;;5052520;28;20045;-46
2022/11/22 10:33:57;;;;;;;11.15;5.93;;;3.90;99.90;;;;;;5052450;28;20091;-46
2022/11/22 10:36:36;;;;;;;12.25;6.95;;;3.90;99.90;;;;;;5049097;28;20106;-46
2022/11/22 10:39:09;;;;;;;12.88;6.72;;;3.90;99.90;;;;;;5051192;28;20076;-48
2022/11/22 10:42:07;;;;;;;11.57;6.65;;;3.90;99.90;;;;;;5030428;28;20041;-47
2022/11/22 10:44:50;;;;;;;11.65;6.20;;;3.90;99.90;;;;;;5021014;28;20091;-47
2022/11/22 10:47:54;;;;;;;15.30;7.20;;;4.00;99.90;;;;;;5032359;28;20111;-46
2022/11/22 10:50:38;;;;;;;13.50;6.47;;;4.00;99.90;;;;;;5027945;28;20041;-48
2022/11/22 10:53:05;;;;;;;11.43;5.93;;;4.00;99.90;;;;;;5031737;28;20099;-47
2022/11/22 10:55:50;;;;;;;11.05;5.80;;;4.00;99.90;;;;;;5030323;28;20045;-46
2022/11/22 10:58:24;;;;;;;10.55;5.63;;;4.00;99.90;;;;;;5051938;28;20049;-47
2022/11/22 11:01:05;;;;;;;9.57;5.72;;;4.00;99.90;;;;;;5051855;28;20045;-47
2022/11/22 11:03:42;;;;;;;12.13;6.00;;;4.00;99.90;;;;;;5033665;28;20493;-47
2022/11/22 11:06:23;;;;;;;9.00;5.30;;;4.00;99.90;;;;;;5038898;28;20048;-46
2022/11/22 11:09:28;;;;;;;8.70;5.25;;;4.00;99.90;;;;;;5042159;28;20456;-46
2022/11/22 11:12:21;;;;;;;8.57;4.80;;;4.00;99.90;;;;;;5028844;28;20047;-47
2022/11/22 11:15:00;;;;;;;8.45;5.07;;;4.10;99.90;;;;;;5030584;28;20057;-49
2022/11/22 11:17:35;;;;;;;7.65;4.22;;;4.10;99.90;;;;;;5033612;28;20464;-51
2022/11/22 11:20:21;;;;;;;7.57;4.50;;;4.00;99.90;;;;;;5038381;28;20041;-49
2022/11/22 11:22:48;;;;;;;10.75;6.00;;;4.10;99.90;;;;;;5035094;28;20116;-48
2022/11/22 11:25:41;;;;;;;11.40;6.43;;;4.10;99.90;;;;;;5030238;28;20120;-48
2022/11/22 11:28:17;;;;;;;12.23;6.40;;;4.10;99.90;;;;;;5027666;28;20049;-47
2022/11/22 11:30:58;;;;;;;11.07;6.72;;;4.10;99.90;;;;;;5031001;28;20041;-50
2022/11/22 11:33:30;;;;;;;12.88;6.00;;;4.00;99.90;;;;;;5030891;28;20072;-47
2022/11/22 11:36:19;;;;;;;11.38;5.10;;;4.00;99.90;;;;;;5030331;28;20041;-48
2022/11/22 11:38:51;;;;;;;8.77;3.92;;;4.10;99.90;;;;;;5023324;28;20045;-48
2022/11/22 11:41:30;;;;;;;9.85;4.13;;;4.10;99.90;;;;;;5031250;28;20046;-48
2022/11/22 11:44:02;;;;;;;4.97;2.50;;;4.00;99.90;;;;;;5018129;28;20041;-48
2022/11/22 11:46:44;;;;;;;10.43;4.22;;;4.00;99.90;;;;;;5031046;28;20064;-52
2022/11/22 11:49:16;;;;;;;7.93;3.35;;;3.80;99.90;;;;;;5030974;28;20072;-47
2022/11/22 11:51:45;;;;;;;8.10;3.42;;;3.60;99.90;;;;;;5030817;28;20313;-47
2022/11/22 11:54:21;;;;;;;11.75;4.90;;;3.40;99.90;;;;;;5028625;28;20572;-47
2022/11/22 11:56:50;;;;;;;11.98;5.03;;;3.50;99.90;;;;;;5031016;28;20127;-48
2022/11/22 11:59:21;;;;;;;8.82;4.43;;;3.50;99.90;;;;;;5031016;28;20463;-49
2022/11/22 12:01:48;;;;;;;7.13;3.65;;;3.60;99.90;;;;;;5021434;28;20041;-48
2022/11/22 12:04:33;;;;;;;4.95;3.17;;;3.60;99.90;;;;;;5030938;28;20049;-47
2022/11/22 12:07:23;;;;;;;7.88;3.20;;;3.70;99.90;;;;;;5024978;28;20533;-48
2022/11/22 12:09:52;;;;;;;5.78;3.03;;;3.70;99.90;;;;;;5021083;28;20045;-47
2022/11/22 12:12:43;;;;;;;14.60;7.35;;;3.60;99.90;;;;;;5030257;28;20049;-47
2022/11/22 12:15:28;;;;;;;6.47;4.05;;;3.60;99.90;;;;;;5021903;28;20045;-47
2022/11/22 12:18:28;;;;;;;4.13;2.25;;;3.70;99.90;;;;;;5024166;28;20046;-48
2022/11/22 12:21:16;;;;;;;7.75;3.33;;;3.70;99.90;;;;;;5025477;28;20052;-48
2022/11/22 12:23:55;;;;;;;5.30;2.50;;;3.70;99.90;;;;;;5030556;28;20208;-48
2022/11/22 12:26:42;;;;;;;6.63;1.60;;;3.60;99.90;;;;;;5030019;28;20050;-47
2022/11/22 12:29:13;;;;;;;4.53;2.50;;;3.60;99.90;;;;;;5030339;28;20080;-48
2022/11/22 12:31:47;;;;;;;6.05;2.63;;;3.70;99.90;;;;;;5030126;28;20583;-49
2022/11/22 12:34:25;;;;;;;4.35;2.17;;;3.60;99.90;;;;;;5031943;28;20054;-48
2022/11/22 12:37:18;;;;;;;4.70;2.08;;;3.50;99.90;;;;;;5026231;28;20065;-48
2022/11/22 12:39:47;;;;;;;3.05;1.67;;;3.60;99.90;;;;;;5034459;28;20065;-47
2022/11/22 12:42:46;;;;;;;3.67;1.67;;;3.50;99.90;;;;;;5033900;28;20132;-47
2022/11/22 12:45:21;;;;;;;4.80;2.10;;;3.40;99.90;;;;;;5030197;28;20092;-49
2022/11/22 12:47:51;;;;;;;3.15;1.95;;;3.60;99.90;;;;;;5029429;28;20041;-47
2022/11/22 12:50:28;;;;;;;3.10;1.90;;;3.80;99.90;;;;;;5034526;28;20507;-48
2022/11/22 12:53:04;;;;;;;4.72;2.15;;;3.90;99.90;;;;;;5031176;28;20034;-47
2022/11/22 12:55:44;;;;;;;11.30;3.78;;;4.00;99.90;;;;;;5033783;28;20498;-48
2022/11/22 12:58:11;;;;;;;6.53;3.08;;;4.00;99.90;;;;;;5029272;28;20747;-47
2022/11/22 13:00:53;;;;;;;10.85;3.83;;;4.00;99.90;;;;;;5033689;28;20075;-47
2022/11/22 13:03:45;;;;;;;2.47;1.30;;;4.00;99.90;;;;;;5033630;28;20049;-47
2022/11/22 13:06:15;;;;;;;4.47;2.05;;;3.90;99.90;;;;;;5024862;28;20038;-48
2022/11/22 13:09:02;;;;;;;5.60;2.10;;;3.90;99.90;;;;;;5033726;28;20067;-48
2022/11/22 13:11:31;;;;;;;2.75;1.35;;;3.80;99.90;;;;;;5053135;22;20132;-47
2022/11/22 13:14:11;;;;;;;7.68;2.33;;;3.80;99.90;;;;;;5067921;28;20075;-47
2022/11/22 13:16:45;;;;;;;5.88;2.92;;;3.80;99.90;;;;;;5065425;28;20115;-47
2022/11/22 13:19:18;;;;;;;7.57;3.80;;;3.80;99.90;;;;;;5071090;28;20040;-49
2022/11/22 13:22:06;;;;;;;9.45;4.43;;;3.90;99.90;;;;;;5060167;28;20105;-47
2022/11/22 13:24:56;;;;;;;7.73;3.63;;;3.90;99.90;;;;;;5053181;28;20037;-48
2022/11/22 13:27:26;;;;;;;11.77;5.45;;;4.00;99.90;;;;;;5050595;28;20068;-46
2022/11/22 13:29:56;;;;;;;14.00;5.70;;;4.00;99.90;;;;;;5045005;28;20072;-47